Terminal Aerodrome Forecast
Issued by NWS

Home | Current Version | Previous Version | Text Only | Print | Product List | Glossary On
Versions: 1 2 3 4 5 6 7 8 9 10 11 12
000
FTUS41 KBTV 191720
TAFMPV
TAF
KMPV 191720Z 1918/2018 21012G22KT P6SM SCT250
     FM200000 23009KT P6SM SCT150 SCT250
     FM200600 29007KT P6SM SKC
     FM201500 32008G15KT P6SM SKC=

USA.gov is the U.S. government's official web portal to all federal, state and local government web resources and services.